createdAt,value
2022-07-25T00:01:46.786Z,99319.28
2022-07-25T00:04:14.508Z,99309.59
2022-07-25T00:06:42.943Z,99314.44
2022-07-25T00:09:10.204Z,99306.19
2022-07-25T00:11:37.344Z,99306.44
2022-07-25T00:14:04.960Z,99310.28
2022-07-25T00:16:32.536Z,99303.19
2022-07-25T00:18:59.290Z,99311.72
2022-07-25T00:21:26.182Z,99296.78
2022-07-25T00:23:52.895Z,99306.28
2022-07-25T00:26:19.903Z,99298.03
2022-07-25T00:28:46.626Z,99301.78
2022-07-25T00:31:13.393Z,99296.63
2022-07-25T00:33:40.440Z,99291.69
2022-07-25T00:36:08.448Z,99285.03
2022-07-25T00:38:35.288Z,99280.09
2022-07-25T00:41:03.630Z,99274.91
2022-07-25T00:43:30.693Z,99275.59
2022-07-25T00:45:58.874Z,99275.34
2022-07-25T00:48:27.713Z,99276.66
2022-07-25T00:50:56.364Z,99272.56
2022-07-25T00:53:23.093Z,99275.59
2022-07-25T00:55:49.858Z,99272.09
2022-07-25T00:58:16.647Z,99267.09
2022-07-25T01:00:43.388Z,99261.91
2022-07-25T01:03:10.350Z,99267.38
2022-07-25T01:05:37.183Z,99271.56
2022-07-25T01:08:04.339Z,99273.91
2022-07-25T01:10:34.044Z,99279.28
2022-07-25T01:13:00.859Z,99286.09
2022-07-25T01:15:28.301Z,99284.69
2022-07-25T01:17:55.383Z,99292.16
2022-07-25T01:20:23.891Z,99284.72
2022-07-25T01:22:51.776Z,99277.09
2022-07-25T01:25:19.525Z,99275.03
2022-07-25T01:27:50.027Z,99275.06
2022-07-25T01:30:22.429Z,99273.41
2022-07-25T01:32:49.109Z,99268.66
2022-07-25T01:35:16.503Z,99266.41
2022-07-25T01:37:45.848Z,99268.28
2022-07-25T01:40:14.540Z,99264.56
2022-07-25T01:42:42.635Z,99270.34
2022-07-25T01:45:10.417Z,99251.75
2022-07-25T01:47:37.588Z,99261.06
2022-07-25T01:50:05.583Z,99249.28
2022-07-25T01:52:32.345Z,99256.94
2022-07-25T01:54:59.214Z,99264.78
2022-07-25T01:57:30.896Z,99250.09
2022-07-25T01:59:58.384Z,99251.56
2022-07-25T02:02:25.102Z,99255.47
2022-07-25T02:04:51.868Z,99244.75
2022-07-25T02:07:18.661Z,99254.63
2022-07-25T02:09:45.323Z,99246.00
2022-07-25T02:12:12.218Z,99244.34
2022-07-25T02:14:39.150Z,99237.16
2022-07-25T02:17:05.975Z,99233.22
2022-07-25T02:19:33.270Z,99238.38
2022-07-25T02:22:00.107Z,99238.81
2022-07-25T02:24:26.825Z,99240.06
2022-07-25T02:26:53.473Z,99240.22
2022-07-25T02:29:21.844Z,99237.75
2022-07-25T02:31:48.962Z,99240.44
2022-07-25T02:34:16.108Z,99247.47
2022-07-25T02:36:43.207Z,99241.88
2022-07-25T02:39:09.998Z,99245.78
2022-07-25T02:41:36.762Z,99245.59
2022-07-25T02:44:04.635Z,99256.50
2022-07-25T02:46:31.943Z,99258.53
2022-07-25T02:48:59.190Z,99268.59
2022-07-25T02:51:25.991Z,99259.63
2022-07-25T02:54:09.135Z,99259.88
2022-07-25T02:56:36.040Z,99249.59
2022-07-25T02:59:02.771Z,99246.59
2022-07-25T03:01:30.008Z,99235.06
2022-07-25T03:03:56.852Z,99237.66
2022-07-25T03:06:23.605Z,99222.50
2022-07-25T03:08:50.310Z,99228.84
2022-07-25T03:11:17.046Z,99227.25
2022-07-25T03:13:43.738Z,99230.66
2022-07-25T03:16:10.764Z,99233.22
2022-07-25T03:18:37.748Z,99243.75
2022-07-25T03:21:04.818Z,99250.13
2022-07-25T03:23:31.551Z,99250.09
2022-07-25T03:25:58.310Z,99254.00
2022-07-25T03:28:25.188Z,99255.22
2022-07-25T03:30:52.910Z,99256.84
2022-07-25T03:33:19.659Z,99252.00
2022-07-25T03:35:46.478Z,99253.44
2022-07-25T03:38:13.178Z,99252.66
2022-07-25T03:40:39.878Z,99259.03
2022-07-25T03:43:06.796Z,99262.13
2022-07-25T03:45:33.565Z,99258.63
2022-07-25T03:48:00.288Z,99257.13
2022-07-25T03:50:26.960Z,99262.31
2022-07-25T03:52:53.665Z,99264.56
2022-07-25T03:55:20.331Z,99263.38
2022-07-25T03:57:47.102Z,99262.50
2022-07-25T04:00:15.616Z,99252.50
2022-07-25T04:02:42.311Z,99257.88
2022-07-25T04:05:09.984Z,99253.75
2022-07-25T04:07:37.464Z,99255.63
2022-07-25T04:10:06.369Z,99250.53
2022-07-25T04:12:33.678Z,99253.59
2022-07-25T04:15:00.503Z,99257.69
2022-07-25T04:17:27.229Z,99257.53
2022-07-25T04:19:53.936Z,99259.78
2022-07-25T04:22:22.517Z,99248.47
2022-07-25T04:24:49.243Z,99247.84
2022-07-25T04:27:15.892Z,99253.81
2022-07-25T04:29:42.642Z,99250.09
2022-07-25T04:32:09.377Z,99250.31
2022-07-25T04:34:36.130Z,99255.69
2022-07-25T04:37:02.876Z,99255.25
2022-07-25T04:39:29.512Z,99255.25
2022-07-25T04:41:56.331Z,99243.59
2022-07-25T04:44:22.996Z,99242.53
2022-07-25T04:46:49.662Z,99244.13
2022-07-25T04:49:16.690Z,99242.91
2022-07-25T04:51:43.653Z,99238.19
2022-07-25T04:54:10.492Z,99233.59
2022-07-25T04:56:37.422Z,99216.50
2022-07-25T04:59:06.733Z,99221.84
2022-07-25T05:01:34.794Z,99216.25
2022-07-25T05:04:01.709Z,99213.66
2022-07-25T05:06:28.643Z,99214.75
2022-07-25T05:08:55.659Z,99212.78
2022-07-25T05:11:22.460Z,99211.13
2022-07-25T05:13:49.234Z,99202.72
2022-07-25T05:16:16.300Z,99204.84
2022-07-25T05:18:43.081Z,99205.56
2022-07-25T05:21:11.783Z,99202.81
2022-07-25T05:23:38.626Z,99210.66
2022-07-25T05:26:05.397Z,99205.75
2022-07-25T05:28:32.068Z,99209.03
2022-07-25T05:30:58.771Z,99208.44
2022-07-25T05:33:26.550Z,99205.91
2022-07-25T05:35:53.260Z,99211.44
2022-07-25T05:38:20.187Z,99210.16
2022-07-25T05:40:48.073Z,99211.38
2022-07-25T05:43:14.828Z,99205.84
2022-07-25T05:45:41.646Z,99211.13
2022-07-25T05:48:08.371Z,99201.81
2022-07-25T05:50:37.038Z,99208.84
2022-07-25T05:53:03.743Z,99202.38
2022-07-25T05:55:30.456Z,99207.78
2022-07-25T05:57:57.203Z,99205.47
2022-07-25T06:00:24.264Z,99202.28
2022-07-25T06:02:51.598Z,99204.88
2022-07-25T06:05:18.360Z,99202.88
2022-07-25T06:07:45.072Z,99207.81
2022-07-25T06:10:11.768Z,99202.97
2022-07-25T06:12:38.510Z,99207.22
2022-07-25T06:15:07.483Z,99206.28
2022-07-25T06:17:39.385Z,99201.50
2022-07-25T06:20:06.994Z,99204.66
2022-07-25T06:22:34.158Z,99200.22
2022-07-25T06:25:03.035Z,99197.44
2022-07-25T06:27:29.758Z,99192.97
2022-07-25T06:29:56.599Z,99185.75
2022-07-25T06:32:23.379Z,99182.41
2022-07-25T06:34:50.068Z,99174.16
2022-07-25T06:37:16.718Z,99178.44
2022-07-25T06:39:45.824Z,99173.69
2022-07-25T06:42:13.167Z,99169.50
2022-07-25T06:44:39.872Z,99162.97
2022-07-25T06:47:10.666Z,99168.16
2022-07-25T06:49:37.442Z,99171.53
2022-07-25T06:52:04.866Z,99165.34
2022-07-25T06:54:31.683Z,99160.53
2022-07-25T06:56:58.508Z,99158.78
2022-07-25T06:59:25.715Z,99153.94
2022-07-25T07:01:52.496Z,99142.31
2022-07-25T07:04:19.304Z,99145.13
2022-07-25T07:06:46.015Z,99141.25
2022-07-25T07:09:12.773Z,99129.84
2022-07-25T07:11:39.614Z,99120.97
2022-07-25T07:14:06.653Z,99122.00
2022-07-25T07:16:33.892Z,99130.56
2022-07-25T07:19:00.707Z,99131.31
2022-07-25T07:21:27.414Z,99129.56
2022-07-25T07:23:55.981Z,99114.91
2022-07-25T07:26:23.671Z,99123.06
2022-07-25T07:28:50.394Z,99118.69
2022-07-25T07:31:18.285Z,99118.84
2022-07-25T07:33:45.714Z,99121.69
2022-07-25T07:36:12.631Z,99117.22
2022-07-25T07:38:40.028Z,99120.84
2022-07-25T07:41:06.752Z,99118.59
2022-07-25T07:43:33.495Z,99113.13
2022-07-25T07:46:01.320Z,99112.81
2022-07-25T07:48:29.490Z,99108.75
2022-07-25T07:50:56.658Z,99101.94
2022-07-25T07:53:43.300Z,99108.13
2022-07-25T07:56:10.177Z,99114.94
2022-07-25T07:58:36.862Z,99111.22
2022-07-25T08:01:04.275Z,99101.97
2022-07-25T08:03:31.026Z,99092.97
2022-07-25T08:05:58.049Z,99088.34
2022-07-25T08:08:29.203Z,99089.72
2022-07-25T08:10:59.047Z,99087.56
2022-07-25T08:13:28.857Z,99096.13
2022-07-25T08:15:59.594Z,99093.72
2022-07-25T08:18:29.718Z,99072.16
2022-07-25T08:20:56.445Z,99069.22
2022-07-25T08:23:25.734Z,99071.69
2022-07-25T08:25:52.650Z,99073.56
2022-07-25T08:28:20.092Z,99065.22
2022-07-25T08:30:47.962Z,99064.94
2022-07-25T08:33:18.174Z,99064.97
2022-07-25T08:35:49.351Z,99064.88
2022-07-25T08:38:16.592Z,99058.00
2022-07-25T08:40:43.299Z,99058.19
2022-07-25T08:43:14.637Z,99044.25
2022-07-25T08:45:45.975Z,99040.59
2022-07-25T08:48:12.970Z,99039.97
2022-07-25T08:50:40.044Z,99043.44
2022-07-25T08:53:31.672Z,99049.16
2022-07-25T08:55:53.496Z,99037.97
2022-07-25T08:58:20.312Z,99038.97
2022-07-25T09:00:47.071Z,99035.88
2022-07-25T09:03:13.907Z,99035.00
2022-07-25T09:05:41.106Z,99034.47
2022-07-25T09:08:13.328Z,99031.22
2022-07-25T09:10:45.396Z,99025.66
2022-07-25T09:13:16.640Z,99027.16
2022-07-25T09:15:49.525Z,99020.25
2022-07-25T09:18:19.051Z,99018.41
2022-07-25T09:20:48.301Z,99010.56
2022-07-25T09:23:29.659Z,99010.56
2022-07-25T09:26:05.539Z,99003.06
2022-07-25T09:28:39.204Z,98998.88
2022-07-25T09:31:05.963Z,99003.59
2022-07-25T09:33:33.023Z,99008.50
2022-07-25T09:36:10.476Z,99001.81
2022-07-25T09:38:37.379Z,98999.00
2022-07-25T09:41:04.242Z,98988.72
2022-07-25T09:43:38.607Z,98984.94
2022-07-25T09:46:06.965Z,98979.00
2022-07-25T09:48:35.436Z,98983.41
2022-07-25T09:51:03.100Z,98976.25
2022-07-25T09:53:29.828Z,98981.44
2022-07-25T09:55:57.689Z,98979.00
2022-07-25T09:58:25.557Z,98960.94
2022-07-25T10:01:05.070Z,98964.31
2022-07-25T10:03:52.822Z,98949.13
2022-07-25T10:06:29.154Z,98950.75
2022-07-25T10:08:56.714Z,98943.78
2022-07-25T10:11:27.895Z,98941.59
2022-07-25T10:13:55.617Z,98934.41
2022-07-25T10:16:24.700Z,98930.03
2022-07-25T10:18:53.973Z,98925.28
2022-07-25T10:21:29.205Z,98922.03
2022-07-25T10:24:11.003Z,98917.44
2022-07-25T10:26:51.196Z,98921.44
2022-07-25T10:29:18.014Z,98906.19
2022-07-25T10:31:51.558Z,98910.31
2022-07-25T10:34:31.847Z,98911.69
2022-07-25T10:37:13.114Z,98904.94
2022-07-25T10:39:41.600Z,98899.31
2022-07-25T10:42:13.509Z,98891.41
2022-07-25T10:44:43.388Z,98900.66
2022-07-25T10:47:12.113Z,98888.25
2022-07-25T10:50:13.366Z,98884.81
2022-07-25T10:52:31.672Z,98882.72
2022-07-25T10:55:00.770Z,98883.63
2022-07-25T10:57:32.049Z,98889.00
2022-07-25T11:00:09.068Z,98882.75
2022-07-25T11:02:36.066Z,98873.84
2022-07-25T11:05:04.053Z,98868.44
2022-07-25T11:07:36.143Z,98862.31
2022-07-25T11:10:05.343Z,98872.88
2022-07-25T11:12:32.404Z,98873.03
2022-07-25T11:15:07.400Z,98867.56
2022-07-25T11:17:34.701Z,98865.34
2022-07-25T11:20:07.678Z,98848.72
2022-07-25T11:22:35.393Z,98853.75
2022-07-25T11:25:09.794Z,98838.00
2022-07-25T11:27:36.515Z,98840.38
2022-07-25T11:30:14.079Z,98837.19
2022-07-25T11:32:43.127Z,98831.53
2022-07-25T11:35:13.092Z,98833.69
2022-07-25T11:37:42.390Z,98828.22
2022-07-25T11:40:10.354Z,98824.22
2022-07-25T11:42:59.974Z,98815.03
2022-07-25T11:45:31.204Z,98816.84
2022-07-25T11:48:12.488Z,98809.44
2022-07-25T11:50:42.302Z,98813.16
2022-07-25T11:53:18.570Z,98801.34
2022-07-25T11:55:47.052Z,98805.84
2022-07-25T11:58:14.539Z,98795.72
2022-07-25T12:00:44.371Z,98786.97
2022-07-25T12:03:18.976Z,98786.66
2022-07-25T12:05:47.405Z,98784.06
2022-07-25T12:08:16.575Z,98783.09
2022-07-25T12:10:44.907Z,98775.53
2022-07-25T12:13:22.672Z,98776.81
2022-07-25T12:15:49.336Z,98770.84
2022-07-25T12:18:15.979Z,98764.19
2022-07-25T12:20:43.909Z,98758.06
2022-07-25T12:23:13.286Z,98753.72
2022-07-25T12:25:43.983Z,98741.59
2022-07-25T12:28:11.631Z,98744.66
2022-07-25T12:30:39.928Z,98746.13
2022-07-25T12:33:07.001Z,98744.97
2022-07-25T12:35:34.585Z,98740.75
2022-07-25T12:38:01.246Z,98743.63
2022-07-25T12:40:28.003Z,98736.53
2022-07-25T12:42:54.755Z,98735.00
2022-07-25T12:45:23.125Z,98736.41
2022-07-25T12:47:49.923Z,98726.53
2022-07-25T12:50:18.030Z,98725.63
2022-07-25T12:52:45.871Z,98724.81
2022-07-25T12:55:17.907Z,98721.06
2022-07-25T12:57:46.646Z,98715.94
2022-07-25T13:00:16.696Z,98717.69
2022-07-25T13:02:44.007Z,98713.75
2022-07-25T13:05:10.818Z,98712.84
2022-07-25T13:07:38.003Z,98700.91
2022-07-25T13:10:06.634Z,98699.66
2022-07-25T13:12:33.714Z,98699.91
2022-07-25T13:15:02.660Z,98694.47
2022-07-25T13:17:29.382Z,98688.09
2022-07-25T13:19:56.956Z,98673.19
2022-07-25T13:22:24.720Z,98679.69
2022-07-25T13:24:51.890Z,98680.63
2022-07-25T13:27:20.065Z,98681.75
2022-07-25T13:29:47.144Z,98680.19
2022-07-25T13:32:14.392Z,98667.53
2022-07-25T13:34:41.090Z,98660.09
2022-07-25T13:37:07.874Z,98661.09
2022-07-25T13:39:35.754Z,98650.91
2022-07-25T13:42:03.217Z,98656.47
2022-07-25T13:44:29.907Z,98649.81
2022-07-25T13:46:57.469Z,98649.94
2022-07-25T13:49:24.925Z,98645.59
2022-07-25T13:51:51.771Z,98643.63
2022-07-25T13:54:18.433Z,98645.25
2022-07-25T13:56:45.155Z,98631.41
2022-07-25T13:59:17.285Z,98632.91
2022-07-25T14:01:47.577Z,98634.66
2022-07-25T14:04:14.337Z,98636.00
2022-07-25T14:06:41.670Z,98628.13
2022-07-25T14:09:08.920Z,98621.66
2022-07-25T14:11:35.979Z,98616.41
2022-07-25T14:14:02.608Z,98623.47
2022-07-25T14:16:29.409Z,98619.91
2022-07-25T14:18:56.289Z,98605.44
2022-07-25T14:21:23.133Z,98610.50
2022-07-25T14:23:49.977Z,98614.91
2022-07-25T14:26:16.666Z,98609.22
2022-07-25T14:28:43.658Z,98613.25
2022-07-25T14:31:11.472Z,98603.28
2022-07-25T14:33:40.151Z,98602.34
2022-07-25T14:36:10.678Z,98601.69
2022-07-25T14:38:37.402Z,98600.56
2022-07-25T14:41:10.494Z,98598.41
2022-07-25T14:43:39.941Z,98592.53
2022-07-25T14:46:08.054Z,98590.44
2022-07-25T14:48:38.966Z,98583.47
2022-07-25T14:51:06.735Z,98580.03
2022-07-25T14:53:34.928Z,98582.63
2022-07-25T14:56:04.794Z,98581.81
2022-07-25T14:58:31.971Z,98577.66
2022-07-25T15:00:59.051Z,98572.63
2022-07-25T15:03:26.132Z,98562.06
2022-07-25T15:05:53.291Z,98568.31
2022-07-25T15:08:20.121Z,98562.06
2022-07-25T15:10:47.125Z,98558.63
2022-07-25T15:13:30.547Z,98554.22
2022-07-25T15:15:58.330Z,98549.06
2022-07-25T15:18:25.399Z,98551.31
2022-07-25T15:20:52.291Z,98541.56
2022-07-25T15:23:20.945Z,98538.47
2022-07-25T15:26:04.430Z,98537.31
2022-07-25T15:28:36.245Z,98537.56
2022-07-25T15:31:03.900Z,98526.00
2022-07-25T15:33:30.809Z,98533.06
2022-07-25T15:35:57.785Z,98531.47
2022-07-25T15:38:24.628Z,98529.75
2022-07-25T15:40:51.354Z,98526.19
2022-07-25T15:43:18.346Z,98525.50
2022-07-25T15:45:46.260Z,98528.41
2022-07-25T15:48:14.686Z,98526.31
2022-07-25T15:50:43.761Z,98519.28
2022-07-25T15:53:11.431Z,98523.09
2022-07-25T15:55:40.376Z,98526.25
2022-07-25T15:58:09.537Z,98529.78
2022-07-25T16:00:37.270Z,98518.16
2022-07-25T16:03:04.511Z,98516.00
2022-07-25T16:05:31.538Z,98515.84
2022-07-25T16:08:01.285Z,98521.25
2022-07-25T16:10:29.846Z,98500.75
2022-07-25T16:12:56.494Z,98505.59
2022-07-25T16:15:23.505Z,98506.34
2022-07-25T16:17:51.731Z,98509.09
2022-07-25T16:20:18.816Z,98507.97
2022-07-25T16:22:46.585Z,98511.41
2022-07-25T16:25:13.422Z,98511.03
2022-07-25T16:27:40.364Z,98508.06
2022-07-25T16:30:07.940Z,98512.50
2022-07-25T16:32:34.863Z,98513.84
2022-07-25T16:35:01.797Z,98508.88
2022-07-25T16:37:28.531Z,98504.31
2022-07-25T16:39:55.235Z,98506.09
2022-07-25T16:42:21.944Z,98494.06
2022-07-25T16:44:49.345Z,98497.84
2022-07-25T16:47:16.115Z,98510.53
2022-07-25T16:49:42.770Z,98503.56
2022-07-25T16:52:09.506Z,98504.75
2022-07-25T16:54:36.152Z,98504.84
2022-07-25T16:57:03.033Z,98499.84
2022-07-25T16:59:29.808Z,98503.88
2022-07-25T17:01:56.557Z,98495.63
2022-07-25T17:04:23.501Z,98498.56
2022-07-25T17:06:50.302Z,98501.88
2022-07-25T17:09:17.281Z,98496.78
2022-07-25T17:11:44.436Z,98496.81
2022-07-25T17:14:11.160Z,98497.19
2022-07-25T17:16:38.153Z,98498.88
2022-07-25T17:19:05.277Z,98495.97
2022-07-25T17:21:32.135Z,98491.09
2022-07-25T17:23:58.797Z,98488.69
2022-07-25T17:26:25.563Z,98481.19
2022-07-25T17:28:53.677Z,98483.63
2022-07-25T17:31:20.379Z,98482.84
2022-07-25T17:33:47.716Z,98481.25
2022-07-25T17:36:14.526Z,98487.22
2022-07-25T17:38:41.487Z,98480.13
2022-07-25T17:41:08.289Z,98482.13
2022-07-25T17:43:34.993Z,98477.75
2022-07-25T17:46:01.828Z,98479.47
2022-07-25T17:48:28.729Z,98474.50
2022-07-25T17:50:55.480Z,98469.81
2022-07-25T17:53:22.370Z,98473.44
2022-07-25T17:55:49.214Z,98468.31
2022-07-25T17:58:15.899Z,98456.56
2022-07-25T18:00:42.534Z,98464.06
2022-07-25T18:03:09.316Z,98462.28
2022-07-25T18:05:36.247Z,98466.47
2022-07-25T18:08:03.301Z,98466.19
2022-07-25T18:10:30.194Z,98478.16
2022-07-25T18:12:57.035Z,98464.72
2022-07-25T18:15:23.830Z,98461.91
2022-07-25T18:17:50.552Z,98460.19
2022-07-25T18:20:17.744Z,98459.19
2022-07-25T18:22:45.373Z,98457.91
2022-07-25T18:25:13.857Z,98461.75
2022-07-25T18:27:42.133Z,98456.47
2022-07-25T18:30:10.580Z,98460.66
2022-07-25T18:32:38.224Z,98456.47
2022-07-25T18:35:05.790Z,98460.88
2022-07-25T18:37:32.533Z,98461.66
2022-07-25T18:39:59.259Z,98463.94
2022-07-25T18:42:29.741Z,98466.66
2022-07-25T18:44:56.942Z,98462.31
2022-07-25T18:47:26.405Z,98479.25
2022-07-25T18:49:58.190Z,98472.63
2022-07-25T18:52:24.974Z,98474.00
2022-07-25T18:54:51.641Z,98474.81
2022-07-25T18:57:18.564Z,98468.41
2022-07-25T18:59:45.751Z,98474.66
2022-07-25T19:02:12.867Z,98472.81
2022-07-25T19:04:39.663Z,98481.72
2022-07-25T19:07:07.463Z,98481.00
2022-07-25T19:09:34.281Z,98473.19
2022-07-25T19:12:01.263Z,98483.03
2022-07-25T19:14:28.824Z,98489.66
2022-07-25T19:16:55.589Z,98496.22
2022-07-25T19:19:22.362Z,98487.00
2022-07-25T19:21:49.265Z,98492.22
2022-07-25T19:24:16.343Z,98492.19
2022-07-25T19:26:43.884Z,98492.16
2022-07-25T19:29:19.420Z,98498.34
2022-07-25T19:31:46.218Z,98502.47
2022-07-25T19:34:12.887Z,98499.59
2022-07-25T19:36:39.716Z,98505.84
2022-07-25T19:39:06.527Z,98488.22
2022-07-25T19:41:33.777Z,98498.63
2022-07-25T19:44:00.806Z,98497.75
2022-07-25T19:46:31.288Z,98496.63
2022-07-25T19:48:58.439Z,98492.53
2022-07-25T19:51:25.291Z,98495.72
2022-07-25T19:53:51.993Z,98488.31
2022-07-25T19:56:18.866Z,98487.81
2022-07-25T19:58:45.636Z,98475.97
2022-07-25T20:01:13.086Z,98473.81
2022-07-25T20:03:40.379Z,98475.75
2022-07-25T20:06:08.605Z,98469.38
2022-07-25T20:08:37.079Z,98469.66
2022-07-25T20:11:03.851Z,98473.28
2022-07-25T20:13:30.623Z,98462.94
2022-07-25T20:15:58.597Z,98464.66
2022-07-25T20:18:25.432Z,98474.19
2022-07-25T20:20:52.305Z,98474.75
2022-07-25T20:23:18.987Z,98473.94
2022-07-25T20:25:45.887Z,98470.75
2022-07-25T20:28:12.575Z,98460.03
2022-07-25T20:30:39.823Z,98463.91
2022-07-25T20:33:09.618Z,98459.66
2022-07-25T20:35:37.600Z,98458.28
2022-07-25T20:38:09.239Z,98464.00
2022-07-25T20:40:43.900Z,98455.47
2022-07-25T20:43:15.649Z,98453.56
2022-07-25T20:45:42.449Z,98467.72
2022-07-25T20:48:09.323Z,98455.13
2022-07-25T20:50:37.650Z,98458.47
2022-07-25T20:53:06.068Z,98466.72
2022-07-25T20:55:34.019Z,98465.19
2022-07-25T20:58:01.048Z,98462.59
2022-07-25T21:00:30.461Z,98467.81
2022-07-25T21:02:58.249Z,98451.91
2022-07-25T21:05:25.609Z,98458.88
2022-07-25T21:07:52.818Z,98461.88
2022-07-25T21:10:20.591Z,98449.13
2022-07-25T21:12:47.529Z,98451.56
2022-07-25T21:15:14.810Z,98453.75
2022-07-25T21:17:44.592Z,98449.13
2022-07-25T21:20:13.661Z,98453.97
2022-07-25T21:22:42.171Z,98455.16
2022-07-25T21:25:10.710Z,98455.38
2022-07-25T21:27:38.509Z,98455.38
2022-07-25T21:30:06.774Z,98448.56
2022-07-25T21:32:33.680Z,98452.72
2022-07-25T21:35:00.380Z,98452.22
2022-07-25T21:37:27.163Z,98450.25
2022-07-25T21:39:54.134Z,98453.63
2022-07-25T21:42:21.175Z,98447.13
2022-07-25T21:44:48.071Z,98448.75
2022-07-25T21:47:14.807Z,98450.41
2022-07-25T21:49:59.665Z,98453.03
2022-07-25T21:52:30.224Z,98459.00
2022-07-25T21:55:04.344Z,98451.97
2022-07-25T21:57:31.615Z,98462.34
2022-07-25T21:59:58.338Z,98459.34
2022-07-25T22:02:24.971Z,98458.56
2022-07-25T22:04:51.761Z,98465.59
2022-07-25T22:07:18.950Z,98465.06
2022-07-25T22:09:45.777Z,98460.91
2022-07-25T22:12:12.721Z,98472.06
2022-07-25T22:14:39.396Z,98462.38
2022-07-25T22:17:06.106Z,98468.00
2022-07-25T22:19:33.519Z,98467.09
2022-07-25T22:22:00.485Z,98469.31
2022-07-25T22:24:27.176Z,98463.91
2022-07-25T22:26:54.016Z,98467.13
2022-07-25T22:29:21.164Z,98468.28
2022-07-25T22:31:48.669Z,98469.94
2022-07-25T22:34:15.518Z,98454.25
2022-07-25T22:36:42.620Z,98454.25
2022-07-25T22:39:09.724Z,98449.38
2022-07-25T22:41:36.715Z,98454.25
2022-07-25T22:44:03.937Z,98460.22
2022-07-25T22:46:31.598Z,98453.97
2022-07-25T22:48:59.293Z,98453.19
2022-07-25T22:51:26.944Z,98460.22
2022-07-25T22:53:53.818Z,98451.53
2022-07-25T22:56:21.880Z,98456.41
2022-07-25T22:58:49.062Z,98450.44
2022-07-25T23:01:17.683Z,98442.34
2022-07-25T23:03:45.277Z,98439.91
2022-07-25T23:06:12.270Z,98432.31
2022-07-25T23:08:39.028Z,98429.34
2022-07-25T23:11:06.297Z,98438.56
2022-07-25T23:13:33.794Z,98434.19
2022-07-25T23:16:00.687Z,98434.75
2022-07-25T23:18:30.221Z,98442.31
2022-07-25T23:20:57.078Z,98437.97
2022-07-25T23:23:23.852Z,98427.69
2022-07-25T23:25:50.698Z,98418.22
2022-07-25T23:28:17.448Z,98417.16
2022-07-25T23:30:44.128Z,98419.59
2022-07-25T23:33:10.879Z,98409.84
2022-07-25T23:35:37.961Z,98409.84
2022-07-25T23:38:05.077Z,98401.75
2022-07-25T23:40:31.881Z,98408.22
2022-07-25T23:42:58.639Z,98400.41
2022-07-25T23:45:28.074Z,98406.06
2022-07-25T23:47:56.436Z,98411.19
2022-07-25T23:50:23.952Z,98415.22
2022-07-25T23:52:51.315Z,98415.78
2022-07-25T23:55:18.167Z,98418.75
2022-07-25T23:57:44.815Z,98427.94
